Lakeside, Arkansas
Current Conditions -  °F | °C
As of 11:53 PM on Wednesday 17 Dec 2014 (Local Time) from KHOT Reporting Station
Light Rain Light Rain  
Wind Chill: 31°   Ceiling: 5500
Heat Index: 37°   Visibility: 5mi
Dew Point: 35°   Wind: 8mph
Humidity: 93%   Direction: 80°E
Pressure: 30.24"   Gusts: NA
Location:  34.5331°N, 93.0035°W
Report Text: KHOT 180553Z AUTO 08007KT 5SM -RA BR OVC055 03/02 A3024 RMK AO2 SLP243 P0002 60017 T00280017 10044 20028 400441011 58006
Loading
Personal Weather Stations






























Interactive Weather Map New forecast layout! Learn more

10-Day Weather Forecast

Advertisements
Track Severe Weather on mobile